Time;durP1;ratioP1;P1;durP2;ratioP2;P2;SDS_P1;SDS_P2;PMS_P1;PMS_P2;Temp;Humidity;BMP_temperature;BMP_pressure;BME280_temperature;BME280_humidity;BME280_pressure;Samples;Min_cycle;Max_cycle;Signal;HPM_P1;HPM_P2
2022/06/11 00:00:48;;;;;;;9.47;5.67;;;21.60;74.90;;;;;;4996834;28;20495;-43
2022/06/11 00:03:14;;;;;;;9.60;5.90;;;21.60;75.10;;;;;;4994547;28;20452;-44
2022/06/11 00:05:43;;;;;;;12.93;7.63;;;21.70;75.50;;;;;;4995733;28;20474;-43
2022/06/11 00:08:10;;;;;;;10.40;7.00;;;21.60;75.60;;;;;;4995904;28;20432;-43
2022/06/11 00:10:37;;;;;;;8.77;6.70;;;21.90;76.20;;;;;;4995388;28;20440;-44
2022/06/11 00:13:05;;;;;;;9.90;6.30;;;21.60;76.10;;;;;;4995919;28;20834;-42
2022/06/11 00:15:32;;;;;;;10.90;6.70;;;21.60;76.50;;;;;;4995562;28;20464;-41
2022/06/11 00:17:59;;;;;;;11.33;7.40;;;21.80;76.80;;;;;;4995301;28;20525;-41
2022/06/11 00:20:28;;;;;;;9.40;7.13;;;21.30;76.60;;;;;;4995476;28;20554;-42
2022/06/11 00:22:56;;;;;;;10.57;6.90;;;21.50;77.00;;;;;;4995668;28;20451;-43
2022/06/11 00:25:23;;;;;;;9.07;6.53;;;21.70;77.40;;;;;;4995522;28;20461;-42
2022/06/11 00:27:49;;;;;;;11.57;6.77;;;21.50;77.30;;;;;;4995506;28;20435;-44
2022/06/11 00:30:18;;;;;;;12.73;7.07;;;21.40;77.30;;;;;;4993599;28;20459;-42
2022/06/11 00:32:46;;;;;;;18.73;10.43;;;21.60;77.70;;;;;;4995524;28;20491;-42
2022/06/11 00:37:46;;;;;;;9.30;6.93;;;21.40;77.70;;;;;;5012215;28;20956;-51
2022/06/11 00:40:17;;;;;;;10.47;7.20;;;21.30;77.60;;;;;;5013602;28;20482;-52
2022/06/11 00:42:44;;;;;;;9.87;6.07;;;21.40;77.80;;;;;;5014435;28;20450;-52
2022/06/11 00:45:26;;;;;;;9.10;6.77;;;21.60;78.10;;;;;;5014236;28;20547;-52
2022/06/11 00:47:58;;;;;;;8.80;6.80;;;21.30;77.80;;;;;;4995057;28;20817;-51
2022/06/11 00:50:43;;;;;;;8.30;6.17;;;21.40;77.90;;;;;;4994298;28;20442;-52
2022/06/11 00:53:14;;;;;;;14.40;6.80;;;21.60;78.10;;;;;;4994460;28;20436;-52
2022/06/11 00:55:43;;;;;;;11.60;6.03;;;21.50;77.80;;;;;;4994743;28;20463;-52
2022/06/11 00:58:13;;;;;;;11.43;6.53;;;21.20;77.40;;;;;;4994521;28;20509;-52
2022/06/11 01:00:43;;;;;;;9.30;6.30;;;21.40;77.50;;;;;;4994241;28;20991;-52
2022/06/11 01:03:13;;;;;;;9.30;6.10;;;21.20;77.20;;;;;;4994302;28;20410;-52
2022/06/11 01:05:45;;;;;;;10.30;6.00;;;21.30;77.10;;;;;;4994423;28;21007;-51
2022/06/11 01:08:24;;;;;;;10.93;6.23;;;21.70;77.50;;;;;;4994424;28;20451;-52
2022/06/11 01:11:20;;;;;;;9.73;6.20;;;21.40;77.20;;;;;;4993319;28;20458;-52
2022/06/11 01:13:57;;;;;;;10.10;5.77;;;21.70;77.40;;;;;;4994427;28;20440;-51
2022/06/11 01:16:34;;;;;;;8.10;5.80;;;21.50;77.10;;;;;;4994200;28;20536;-52
2022/06/11 01:19:16;;;;;;;6.47;5.60;;;21.40;76.90;;;;;;4993780;28;20811;-51
2022/06/11 01:21:54;;;;;;;10.20;6.03;;;21.60;77.20;;;;;;4994149;28;20437;-51
2022/06/11 01:24:59;;;;;;;9.87;6.20;;;21.60;77.20;;;;;;4994164;28;20989;-52
2022/06/11 01:27:47;;;;;;;11.50;5.57;;;21.40;77.10;;;;;;4994105;28;20455;-52
2022/06/11 01:30:20;;;;;;;9.70;5.43;;;21.30;77.10;;;;;;4993964;28;20502;-51
2022/06/11 01:32:57;;;;;;;7.13;5.50;;;21.20;77.10;;;;;;4993893;28;20450;-52
2022/06/11 01:35:50;;;;;;;6.60;5.77;;;21.30;77.30;;;;;;4993997;28;20453;-51
2022/06/11 01:38:24;;;;;;;9.70;6.80;;;21.30;77.50;;;;;;4990612;28;20546;-52
2022/06/11 01:40:56;;;;;;;10.13;6.10;;;21.20;77.60;;;;;;4993696;28;20484;-51
2022/06/11 01:43:29;;;;;;;12.13;6.80;;;21.20;77.70;;;;;;4993924;28;20496;-51
2022/06/11 01:45:57;;;;;;;7.93;6.00;;;21.20;77.90;;;;;;4993757;28;20851;-52
2022/06/11 01:48:27;;;;;;;9.80;5.33;;;21.20;77.90;;;;;;4993114;28;20436;-51
2022/06/11 01:51:09;;;;;;;8.70;5.80;;;21.10;77.90;;;;;;4993774;28;20426;-52
2022/06/11 01:53:47;;;;;;;9.00;5.77;;;21.10;78.00;;;;;;4992652;28;20440;-51
2022/06/11 01:56:28;;;;;;;6.20;4.80;;;21.10;78.10;;;;;;4993402;28;20466;-52
2022/06/11 01:59:34;;;;;;;8.17;5.73;;;21.00;78.00;;;;;;4993209;28;20430;-52
2022/06/11 02:02:15;;;;;;;10.37;5.70;;;21.10;78.10;;;;;;4993401;28;20450;-51
2022/06/11 02:04:52;;;;;;;7.80;5.17;;;20.90;77.80;;;;;;4993570;28;20531;-52
2022/06/11 02:07:26;;;;;;;9.60;4.90;;;21.00;77.80;;;;;;4993520;28;20449;-51
2022/06/11 02:10:00;;;;;;;5.70;4.60;;;21.00;77.70;;;;;;4993007;28;20930;-52
2022/06/11 02:12:33;;;;;;;7.10;5.13;;;20.90;77.70;;;;;;4991945;28;20454;-52
2022/06/11 02:15:05;;;;;;;8.80;4.70;;;20.80;77.60;;;;;;4993428;28;20442;-52
2022/06/11 02:17:36;;;;;;;9.90;4.67;;;21.00;77.80;;;;;;4992823;28;20488;-52
2022/06/11 02:20:08;;;;;;;6.83;4.77;;;21.10;78.80;;;;;;4992748;28;20478;-51
2022/06/11 02:22:43;;;;;;;6.60;4.93;;;20.90;77.90;;;;;;4993380;28;20834;-52
2022/06/11 02:25:14;;;;;;;9.53;4.30;;;21.00;78.20;;;;;;4993443;28;20438;-52
2022/06/11 02:27:42;;;;;;;6.17;4.73;;;21.00;78.40;;;;;;4993080;28;20438;-51
2022/06/11 02:30:14;;;;;;;7.97;5.00;;;20.40;77.80;;;;;;4992633;28;20438;-52
2022/06/11 02:32:42;;;;;;;8.00;5.53;;;20.90;78.60;;;;;;4992877;28;20525;-50
2022/06/11 02:35:12;;;;;;;8.37;4.83;;;20.60;78.30;;;;;;4992965;28;20939;-51
2022/06/11 02:37:41;;;;;;;7.67;4.87;;;21.00;79.00;;;;;;4992733;28;20457;-52
2022/06/11 02:40:11;;;;;;;8.40;5.47;;;20.80;78.80;;;;;;4992475;28;20479;-51
2022/06/11 02:42:38;;;;;;;7.20;4.97;;;20.80;79.00;;;;;;4993184;28;20439;-52
2022/06/11 02:45:06;;;;;;;8.27;5.20;;;21.10;79.50;;;;;;4992661;28;20434;-52
2022/06/11 02:47:33;;;;;;;9.20;5.17;;;20.80;79.60;;;;;;4992590;28;20458;-52
2022/06/11 02:50:01;;;;;;;6.77;4.50;;;20.80;79.80;;;;;;4992278;28;20453;-51
2022/06/11 02:52:27;;;;;;;6.03;4.70;;;20.90;80.10;;;;;;4992847;28;20443;-52
2022/06/11 02:54:54;;;;;;;6.20;4.90;;;21.00;80.30;;;;;;4992703;28;20920;-52
2022/06/11 02:57:26;;;;;;;8.50;5.07;;;20.70;80.40;;;;;;4992474;28;20455;-51
2022/06/11 02:59:54;;;;;;;5.20;4.67;;;20.60;80.40;;;;;;4992147;28;20484;-51
2022/06/11 03:02:23;;;;;;;11.20;5.27;;;20.70;80.70;;;;;;4992107;28;20810;-51
2022/06/11 03:04:50;;;;;;;8.27;5.00;;;20.80;81.00;;;;;;4992212;28;20441;-52
2022/06/11 03:07:19;;;;;;;8.77;5.57;;;20.50;80.80;;;;;;4992395;28;20455;-52
2022/06/11 03:09:46;;;;;;;7.00;5.03;;;20.70;81.40;;;;;;4992032;28;20442;-51
2022/06/11 03:12:14;;;;;;;11.33;5.30;;;20.70;81.50;;;;;;4992297;28;20434;-51
2022/06/11 03:14:42;;;;;;;8.40;5.67;;;20.70;82.50;;;;;;4992378;28;20816;-51
2022/06/11 03:17:11;;;;;;;8.97;4.50;;;20.40;81.50;;;;;;4992009;28;20462;-51
2022/06/11 03:19:38;;;;;;;8.13;5.80;;;20.70;81.80;;;;;;4992062;28;20907;-51
2022/06/11 03:22:05;;;;;;;8.73;5.30;;;20.70;82.00;;;;;;4992257;28;20923;-51
2022/06/11 03:24:34;;;;;;;9.83;5.77;;;20.70;82.00;;;;;;4992197;28;20431;-52
2022/06/11 03:27:01;;;;;;;7.90;5.07;;;20.70;82.10;;;;;;4992101;28;20468;-52
2022/06/11 03:29:28;;;;;;;10.63;6.40;;;20.80;82.30;;;;;;4991665;28;20441;-51
2022/06/11 03:31:55;;;;;;;16.33;6.70;;;20.70;82.30;;;;;;4992004;28;20437;-51
2022/06/11 03:34:22;;;;;;;12.47;6.43;;;20.60;82.20;;;;;;4990720;28;20450;-52
2022/06/11 03:36:52;;;;;;;8.30;5.67;;;20.80;82.60;;;;;;4990466;28;20850;-52
2022/06/11 03:39:19;;;;;;;11.87;5.53;;;20.90;83.10;;;;;;4991768;28;20537;-52
2022/06/11 03:41:48;;;;;;;9.63;6.13;;;20.90;83.90;;;;;;4991993;28;20477;-52
2022/06/11 03:44:15;;;;;;;9.00;5.83;;;20.90;83.30;;;;;;4992074;28;20537;-52
2022/06/11 03:46:42;;;;;;;7.67;5.40;;;20.80;83.30;;;;;;4991674;28;20481;-51
2022/06/11 03:49:08;;;;;;;7.97;5.17;;;21.00;83.70;;;;;;4991666;28;20434;-52
2022/06/11 03:51:35;;;;;;;8.43;5.97;;;20.60;84.10;;;;;;4992331;28;20452;-52
2022/06/11 03:54:02;;;;;;;8.90;5.57;;;20.40;82.90;;;;;;4991795;28;20437;-52
2022/06/11 03:56:29;;;;;;;6.10;4.80;;;20.90;83.50;;;;;;4991859;28;20462;-52
2022/06/11 03:58:57;;;;;;;11.77;5.73;;;20.80;83.10;;;;;;4991584;28;20934;-52
2022/06/11 04:01:24;;;;;;;8.97;5.27;;;21.10;83.10;;;;;;4991637;28;20998;-51
2022/06/11 04:03:53;;;;;;;5.17;4.67;;;21.10;82.70;;;;;;4991907;28;20435;-51
2022/06/11 04:06:23;;;;;;;9.23;4.40;;;20.90;81.40;;;;;;4991919;28;20468;-51
2022/06/11 04:08:50;;;;;;;11.10;4.63;;;21.20;80.80;;;;;;4991626;28;20431;-52
2022/06/11 04:11:17;;;;;;;9.13;4.77;;;21.20;81.10;;;;;;4991965;28;20440;-52
2022/06/11 04:13:45;;;;;;;5.23;4.03;;;21.30;81.00;;;;;;4991814;28;20452;-52
2022/06/11 04:16:22;;;;;;;13.43;5.20;;;20.80;80.50;;;;;;4993265;28;20483;-52
2022/06/11 04:18:50;;;;;;;12.20;5.30;;;21.10;80.90;;;;;;4995130;28;20443;-51
2022/06/11 04:21:17;;;;;;;5.40;3.97;;;21.30;81.40;;;;;;4995420;28;20485;-52
2022/06/11 04:23:48;;;;;;;7.17;5.20;;;21.20;81.50;;;;;;4995360;28;20445;-51
2022/06/11 04:26:18;;;;;;;9.67;4.47;;;21.10;81.50;;;;;;4995380;28;20471;-51
2022/06/11 04:28:45;;;;;;;7.63;3.93;;;21.20;81.70;;;;;;4994874;28;20446;-52
2022/06/11 04:31:15;;;;;;;10.00;4.73;;;21.40;81.40;;;;;;4995246;28;20444;-51
2022/06/11 04:33:44;;;;;;;9.40;4.37;;;21.60;80.90;;;;;;4995326;28;20494;-52
2022/06/11 04:36:11;;;;;;;7.40;4.20;;;21.40;80.30;;;;;;4994931;28;20487;-52
2022/06/11 04:38:39;;;;;;;7.40;4.47;;;21.70;79.90;;;;;;4994756;28;20440;-52
2022/06/11 04:41:06;;;;;;;8.13;3.87;;;21.30;79.30;;;;;;4994924;28;20479;-51
2022/06/11 04:43:33;;;;;;;6.40;3.73;;;21.60;79.40;;;;;;4994915;28;20955;-52
2022/06/11 04:45:59;;;;;;;6.70;3.80;;;21.60;79.30;;;;;;4994814;28;20494;-52
2022/06/11 04:48:26;;;;;;;5.40;3.97;;;21.50;79.00;;;;;;4994787;28;20508;-51
2022/06/11 04:50:54;;;;;;;8.07;3.60;;;21.80;79.10;;;;;;4994874;28;20437;-52
2022/06/11 04:53:20;;;;;;;4.97;3.47;;;21.90;79.00;;;;;;4993760;28;20532;-52
2022/06/11 04:55:47;;;;;;;5.17;3.13;;;22.00;78.90;;;;;;4994435;28;20470;-52
2022/06/11 04:58:13;;;;;;;6.47;3.70;;;22.00;78.70;;;;;;4994664;28;20440;-51
2022/06/11 05:00:40;;;;;;;6.10;3.50;;;22.10;78.60;;;;;;4994429;28;20480;-51
2022/06/11 05:03:07;;;;;;;5.80;3.33;;;22.10;78.30;;;;;;4994598;28;20442;-51
2022/06/11 05:05:33;;;;;;;4.60;3.20;;;22.30;77.60;;;;;;4994581;28;20462;-51
2022/06/11 05:08:02;;;;;;;5.90;4.13;;;22.00;76.50;;;;;;4994392;28;20437;-51
2022/06/11 05:10:30;;;;;;;3.93;3.40;;;22.30;76.40;;;;;;4994289;28;20436;-51
2022/06/11 05:12:57;;;;;;;5.60;3.17;;;22.30;76.10;;;;;;4994404;28;20468;-52
2022/06/11 05:15:24;;;;;;;4.57;3.40;;;22.40;75.90;;;;;;4994921;28;20456;-52
2022/06/11 05:17:51;;;;;;;7.00;3.93;;;22.30;75.70;;;;;;4994786;28;20519;-52
2022/06/11 05:20:19;;;;;;;8.50;4.30;;;22.50;75.50;;;;;;4993937;28;20434;-52
2022/06/11 05:22:46;;;;;;;4.33;3.20;;;22.20;75.00;;;;;;4994541;28;20763;-52
2022/06/11 05:25:16;;;;;;;7.90;3.00;;;22.30;74.90;;;;;;4994322;28;20439;-51
2022/06/11 05:27:43;;;;;;;5.20;3.40;;;22.50;75.00;;;;;;4993874;28;20436;-52
2022/06/11 05:30:16;;;;;;;5.03;4.20;;;22.60;75.00;;;;;;4993609;28;20455;-53
2022/06/11 05:32:43;;;;;;;7.40;2.97;;;22.50;74.50;;;;;;4994309;28;20476;-52
2022/06/11 05:35:14;;;;;;;4.47;3.67;;;22.70;74.60;;;;;;4993961;28;20436;-52
2022/06/11 05:37:41;;;;;;;7.30;3.37;;;22.70;74.40;;;;;;4993985;28;20450;-51
2022/06/11 05:40:09;;;;;;;5.57;3.33;;;22.80;74.20;;;;;;4993514;28;20442;-51
2022/06/11 05:42:37;;;;;;;4.17;2.73;;;22.80;73.90;;;;;;4993695;28;20564;-52
2022/06/11 05:45:04;;;;;;;3.83;2.80;;;22.70;73.40;;;;;;4993882;28;20948;-52
2022/06/11 05:47:31;;;;;;;8.23;3.47;;;23.00;73.70;;;;;;4993834;28;20834;-52
2022/06/11 05:50:00;;;;;;;7.90;3.83;;;23.10;73.60;;;;;;4993136;28;20460;-51
2022/06/11 05:52:30;;;;;;;4.00;2.97;;;22.90;73.20;;;;;;4993650;28;20434;-51
2022/06/11 05:54:57;;;;;;;6.93;2.87;;;23.30;73.30;;;;;;4993622;28;20522;-52
2022/06/11 05:57:27;;;;;;;15.33;3.57;;;23.20;72.80;;;;;;4993248;28;20464;-52
2022/06/11 05:59:59;;;;;;;7.23;2.90;;;23.40;72.70;;;;;;4993098;28;20434;-52
2022/06/11 06:02:27;;;;;;;5.23;3.30;;;23.40;72.70;;;;;;4993220;28;20983;-52
2022/06/11 06:04:53;;;;;;;9.40;3.43;;;23.50;72.70;;;;;;4992230;28;20461;-51
2022/06/11 06:07:20;;;;;;;5.80;3.03;;;23.50;72.50;;;;;;4993462;28;20468;-51
2022/06/11 06:09:47;;;;;;;4.93;2.40;;;23.60;72.30;;;;;;4993281;28;20428;-51
2022/06/11 06:12:15;;;;;;;4.73;3.40;;;23.70;72.20;;;;;;4993371;28;20448;-51
2022/06/11 06:14:42;;;;;;;4.70;2.63;;;23.70;71.70;;;;;;4993418;28;20441;-52
2022/06/11 06:17:10;;;;;;;5.47;3.00;;;23.60;71.00;;;;;;4993341;28;20481;-52
2022/06/11 06:19:37;;;;;;;6.33;3.30;;;23.90;70.60;;;;;;4992749;28;20444;-52
2022/06/11 06:22:04;;;;;;;7.30;2.77;;;23.90;70.40;;;;;;4993036;28;20594;-52
2022/06/11 06:24:33;;;;;;;7.90;3.10;;;24.00;70.10;;;;;;4992804;28;20479;-52
2022/06/11 06:27:00;;;;;;;6.10;2.93;;;23.80;69.70;;;;;;4992858;28;20460;-52
2022/06/11 06:29:27;;;;;;;6.07;3.27;;;24.10;69.60;;;;;;4992634;28;20439;-51
2022/06/11 06:31:53;;;;;;;4.37;2.50;;;24.20;69.40;;;;;;4992969;28;20463;-52
2022/06/11 06:34:21;;;;;;;5.67;3.43;;;24.30;69.20;;;;;;4992707;28;20445;-51
2022/06/11 06:36:48;;;;;;;5.50;4.03;;;24.30;68.70;;;;;;4993127;28;20993;-52
2022/06/11 06:39:14;;;;;;;9.17;3.27;;;24.40;68.30;;;;;;4992017;28;20437;-52
2022/06/11 06:41:41;;;;;;;7.53;3.63;;;24.40;68.10;;;;;;4992694;28;20489;-52
2022/06/11 06:44:08;;;;;;;5.80;3.30;;;24.50;68.10;;;;;;4993001;28;20925;-53
2022/06/11 06:46:34;;;;;;;7.33;3.67;;;24.40;68.00;;;;;;4992570;28;20453;-51
2022/06/11 06:49:01;;;;;;;6.40;3.00;;;24.50;68.00;;;;;;4992154;28;20487;-52
2022/06/11 06:51:29;;;;;;;5.73;3.37;;;24.70;68.00;;;;;;4992458;28;20433;-52
2022/06/11 06:53:56;;;;;;;6.07;3.33;;;24.70;67.80;;;;;;4992815;28;20758;-52
2022/06/11 06:56:25;;;;;;;6.80;3.37;;;24.70;67.40;;;;;;4992322;28;20460;-52
2022/06/11 06:58:52;;;;;;;8.20;3.37;;;24.70;67.30;;;;;;4992049;28;20449;-52
2022/06/11 07:01:19;;;;;;;8.33;3.77;;;25.10;67.60;;;;;;4992426;28;20535;-52
2022/06/11 07:03:46;;;;;;;6.43;3.47;;;24.80;66.90;;;;;;4992548;28;20443;-52
2022/06/11 07:06:12;;;;;;;5.70;3.30;;;24.40;66.30;;;;;;4992250;28;20942;-52
2022/06/11 07:08:40;;;;;;;4.90;3.20;;;24.90;66.70;;;;;;4992063;28;20434;-52
2022/06/11 07:11:07;;;;;;;4.80;3.50;;;24.90;66.60;;;;;;4992147;28;20433;-51
2022/06/11 07:13:35;;;;;;;7.03;3.20;;;25.00;66.70;;;;;;4992183;28;20437;-52
2022/06/11 07:16:04;;;;;;;7.80;3.17;;;25.00;66.70;;;;;;4992439;28;20461;-52
2022/06/11 07:18:36;;;;;;;4.67;2.53;;;25.10;66.90;;;;;;4990515;28;20456;-53
2022/06/11 07:21:07;;;;;;;7.57;3.20;;;25.10;66.80;;;;;;4992154;28;20464;-52
2022/06/11 07:23:36;;;;;;;4.43;3.50;;;25.10;66.80;;;;;;4992340;28;20797;-51
2022/06/11 07:26:09;;;;;;;4.50;2.50;;;25.20;66.80;;;;;;4992088;28;20457;-52
2022/06/11 07:28:43;;;;;;;6.10;2.93;;;25.20;66.80;;;;;;4991947;28;20911;-52
2022/06/11 07:31:10;;;;;;;5.17;2.83;;;25.20;67.10;;;;;;4991996;28;20464;-51
2022/06/11 07:33:37;;;;;;;7.43;3.20;;;25.40;66.40;;;;;;4991900;28;20798;-52
2022/06/11 07:36:05;;;;;;;5.47;2.23;;;25.50;66.40;;;;;;4991764;28;20492;-51
2022/06/11 07:38:31;;;;;;;4.17;2.60;;;25.50;66.00;;;;;;4991591;28;20433;-51
2022/06/11 07:40:58;;;;;;;3.10;2.50;;;25.70;65.90;;;;;;4992065;28;20442;-52
2022/06/11 07:43:26;;;;;;;7.70;3.40;;;25.60;65.30;;;;;;4991583;28;20442;-52
2022/06/11 07:45:53;;;;;;;4.10;3.00;;;25.80;64.90;;;;;;4991515;28;21009;-52
2022/06/11 07:48:19;;;;;;;4.10;3.23;;;25.80;64.60;;;;;;4991460;28;20773;-53
2022/06/11 07:50:48;;;;;;;8.37;3.23;;;25.70;64.20;;;;;;4992154;28;20445;-50
2022/06/11 07:53:15;;;;;;;4.27;2.73;;;25.80;63.80;;;;;;4995486;28;20429;-52
2022/06/11 07:55:44;;;;;;;6.30;2.57;;;26.00;63.90;;;;;;4995497;28;20828;-53
2022/06/11 07:58:12;;;;;;;12.70;3.87;;;26.10;63.80;;;;;;4995528;28;21016;-53
2022/06/11 08:00:43;;;;;;;4.80;2.60;;;25.80;63.50;;;;;;4995035;28;20919;-52
2022/06/11 08:03:10;;;;;;;4.70;2.70;;;26.30;63.50;;;;;;4995428;28;20972;-52
2022/06/11 08:05:38;;;;;;;7.60;3.23;;;26.40;62.80;;;;;;4995312;28;20458;-52
2022/06/11 08:08:07;;;;;;;4.80;3.03;;;26.40;62.40;;;;;;4995110;28;20433;-52
2022/06/11 08:10:34;;;;;;;4.23;2.70;;;26.60;63.20;;;;;;4994695;28;20980;-53
2022/06/11 08:13:02;;;;;;;6.23;3.00;;;26.70;62.10;;;;;;4995081;28;20441;-50
2022/06/11 08:15:28;;;;;;;4.03;2.50;;;26.80;61.90;;;;;;4993511;28;20507;-52
2022/06/11 08:17:56;;;;;;;5.83;3.00;;;26.80;61.60;;;;;;4995461;28;20441;-51
2022/06/11 08:20:28;;;;;;;4.27;2.30;;;26.90;61.30;;;;;;4994874;28;20426;-51
2022/06/11 08:22:55;;;;;;;5.60;3.07;;;27.00;60.70;;;;;;4994875;28;20469;-51
2022/06/11 08:25:23;;;;;;;6.57;2.93;;;27.00;60.30;;;;;;4994745;28;20433;-52
2022/06/11 08:27:50;;;;;;;6.10;3.10;;;27.10;60.30;;;;;;4994855;28;20438;-50
2022/06/11 08:30:19;;;;;;;6.50;3.30;;;27.20;60.30;;;;;;4994907;28;21048;-51
2022/06/11 08:32:46;;;;;;;4.83;2.47;;;27.30;59.70;;;;;;4994986;28;20467;-51
2022/06/11 08:35:16;;;;;;;6.30;2.90;;;27.30;59.50;;;;;;4994423;28;20517;-51
2022/06/11 08:37:43;;;;;;;4.13;2.60;;;27.40;59.20;;;;;;4994322;28;20953;-51
2022/06/11 08:40:23;;;;;;;5.53;3.17;;;27.30;58.90;;;;;;4994233;28;20492;-51
2022/06/11 08:42:57;;;;;;;7.33;3.20;;;27.20;58.70;;;;;;4994721;28;20986;-51
2022/06/11 08:45:27;;;;;;;7.40;2.53;;;27.40;58.50;;;;;;4994517;28;20470;-51
2022/06/11 08:47:59;;;;;;;6.70;3.03;;;27.50;58.10;;;;;;4994083;28;20433;-51
2022/06/11 08:50:33;;;;;;;6.30;2.87;;;27.40;58.00;;;;;;4994293;28;20794;-51
2022/06/11 08:53:01;;;;;;;6.13;3.57;;;27.40;57.80;;;;;;4992939;28;20459;-51
2022/06/11 08:55:34;;;;;;;6.93;2.70;;;27.50;57.80;;;;;;4994054;28;20440;-51
2022/06/11 08:58:08;;;;;;;3.40;2.57;;;27.60;57.60;;;;;;4994251;28;20440;-51
2022/06/11 09:00:42;;;;;;;9.63;3.73;;;27.80;57.70;;;;;;4994070;28;20492;-53
2022/06/11 09:03:16;;;;;;;6.47;2.87;;;27.90;57.60;;;;;;4994255;28;20481;-51
2022/06/11 09:05:55;;;;;;;8.10;1.87;;;28.00;57.00;;;;;;4994679;28;21028;-51
2022/06/11 09:08:36;;;;;;;6.27;2.30;;;28.00;56.60;;;;;;4994363;28;20442;-51
2022/06/11 09:11:12;;;;;;;3.60;1.90;;;28.00;56.10;;;;;;4994225;28;20440;-51
2022/06/11 09:14:08;;;;;;;5.93;2.00;;;28.00;56.20;;;;;;4994038;28;20956;-52
2022/06/11 09:16:47;;;;;;;7.23;2.33;;;28.10;55.90;;;;;;4993937;28;20543;-52
2022/06/11 09:19:27;;;;;;;7.07;2.47;;;28.10;55.70;;;;;;4993477;28;21053;-52
2022/06/11 09:22:14;;;;;;;3.93;2.20;;;28.10;55.80;;;;;;4994272;28;20488;-51
2022/06/11 09:24:55;;;;;;;7.47;2.20;;;28.20;55.40;;;;;;4994221;28;20464;-52
2022/06/11 09:27:30;;;;;;;3.33;1.77;;;28.20;55.10;;;;;;4993987;28;20487;-51
2022/06/11 09:30:05;;;;;;;4.50;2.20;;;28.20;55.10;;;;;;4993744;28;20459;-51
2022/06/11 09:32:40;;;;;;;6.10;2.23;;;28.30;54.90;;;;;;4993855;28;20520;-52
2022/06/11 09:35:12;;;;;;;4.43;2.50;;;28.40;54.80;;;;;;4994285;28;20451;-51
2022/06/11 09:37:56;;;;;;;3.80;2.00;;;28.50;54.70;;;;;;4993157;28;20452;-52
2022/06/11 09:40:32;;;;;;;4.73;2.00;;;28.70;54.50;;;;;;4993433;28;20433;-50
2022/06/11 09:43:13;;;;;;;4.43;2.00;;;28.70;54.00;;;;;;4993974;28;20486;-52
2022/06/11 09:45:48;;;;;;;4.03;1.77;;;28.70;53.70;;;;;;4993984;28;20996;-53
2022/06/11 09:48:27;;;;;;;4.23;1.90;;;28.80;53.60;;;;;;4994290;28;20441;-51
2022/06/11 09:51:01;;;;;;;7.30;2.60;;;28.90;53.20;;;;;;4993958;28;20448;-52
2022/06/11 09:53:42;;;;;;;2.70;1.63;;;28.80;52.90;;;;;;4993660;28;20434;-52
2022/06/11 09:56:16;;;;;;;3.50;1.80;;;28.80;52.50;;;;;;4993948;28;20461;-51
2022/06/11 09:58:52;;;;;;;5.60;2.00;;;28.80;52.80;;;;;;4993275;28;20445;-52
2022/06/11 10:01:28;;;;;;;3.83;2.30;;;28.60;52.90;;;;;;4993371;28;20451;-52
2022/06/11 10:03:58;;;;;;;4.87;2.03;;;28.80;53.20;;;;;;4993209;28;20481;-52
2022/06/11 10:06:30;;;;;;;4.67;2.37;;;28.70;53.50;;;;;;4993133;28;20465;-53
2022/06/11 10:09:00;;;;;;;4.20;2.30;;;28.50;53.40;;;;;;4993238;28;20437;-52
2022/06/11 10:11:32;;;;;;;3.30;1.97;;;28.70;53.30;;;;;;4992716;28;20444;-52
2022/06/11 10:14:28;;;;;;;3.47;1.87;;;28.60;53.40;;;;;;4992048;28;20465;-53
2022/06/11 10:16:54;;;;;;;3.50;2.10;;;28.60;53.40;;;;;;4992605;28;20616;-52
2022/06/11 10:19:27;;;;;;;3.07;1.50;;;28.50;53.50;;;;;;4992526;28;20887;-52
2022/06/11 10:22:00;;;;;;;4.50;2.13;;;28.50;53.00;;;;;;4992543;28;20444;-51
2022/06/11 10:24:31;;;;;;;6.17;2.17;;;28.50;53.00;;;;;;4991859;28;20440;-52
2022/06/11 10:27:04;;;;;;;3.00;1.80;;;28.50;52.70;;;;;;4992935;28;20457;-52
2022/06/11 10:29:37;;;;;;;3.77;1.90;;;28.40;52.70;;;;;;4992568;28;20444;-52
2022/06/11 10:32:11;;;;;;;4.23;2.80;;;28.40;53.10;;;;;;4992970;28;20448;-50
2022/06/11 10:34:43;;;;;;;4.30;1.90;;;28.40;53.10;;;;;;4992509;28;20429;-52
2022/06/11 10:37:19;;;;;;;4.03;2.10;;;28.30;52.90;;;;;;4992349;28;20484;-53
2022/06/11 10:39:52;;;;;;;3.33;1.80;;;28.30;52.90;;;;;;4992998;28;20471;-53
2022/06/11 10:42:29;;;;;;;4.10;2.93;;;28.20;51.60;;;;;;4992563;28;20480;-53
2022/06/11 10:44:56;;;;;;;2.40;1.67;;;28.30;51.50;;;;;;4992768;28;20447;-52
2022/06/11 10:47:26;;;;;;;4.67;1.80;;;28.20;51.30;;;;;;4992720;28;20563;-51
2022/06/11 10:50:01;;;;;;;5.53;3.93;;;28.30;51.40;;;;;;4992083;28;20535;-51
2022/06/11 10:52:34;;;;;;;5.57;2.47;;;28.20;51.50;;;;;;4992545;28;20436;-52
2022/06/11 10:55:02;;;;;;;3.43;1.60;;;28.20;51.60;;;;;;4992447;28;20815;-51
2022/06/11 10:57:31;;;;;;;3.50;1.60;;;28.30;51.80;;;;;;4992057;28;20492;-52
2022/06/11 11:00:04;;;;;;;3.77;1.87;;;28.30;51.60;;;;;;4991756;28;20949;-52
2022/06/11 11:02:38;;;;;;;4.90;1.67;;;28.50;51.70;;;;;;4992257;28;20479;-51
2022/06/11 11:05:08;;;;;;;3.37;1.47;;;28.60;51.50;;;;;;4992327;28;20453;-51
2022/06/11 11:07:45;;;;;;;2.67;1.30;;;28.80;51.40;;;;;;4990704;28;20516;-52
2022/06/11 11:10:30;;;;;;;3.23;1.60;;;28.90;51.10;;;;;;4990482;28;20450;-52
2022/06/11 11:13:00;;;;;;;2.83;1.47;;;29.10;50.70;;;;;;4991646;28;20437;-51
2022/06/11 11:15:29;;;;;;;3.33;1.83;;;29.20;50.80;;;;;;4992788;28;20441;-51
2022/06/11 11:18:03;;;;;;;8.70;1.90;;;29.30;50.70;;;;;;4992675;28;20525;-52
2022/06/11 11:20:34;;;;;;;3.33;2.00;;;29.40;50.80;;;;;;4992545;28;20923;-52
2022/06/11 11:23:15;;;;;;;4.63;2.00;;;29.40;50.80;;;;;;4992720;28;20481;-52
2022/06/11 11:25:46;;;;;;;8.33;2.27;;;29.40;50.20;;;;;;4996058;28;20461;-52
2022/06/11 11:28:21;;;;;;;2.40;1.73;;;29.40;50.50;;;;;;4998567;28;20432;-53
2022/06/11 11:30:58;;;;;;;2.23;1.63;;;29.50;50.30;;;;;;4998288;28;20437;-52
2022/06/11 11:33:27;;;;;;;2.57;1.70;;;29.60;49.90;;;;;;4998642;28;20441;-52
2022/06/11 11:36:14;;;;;;;3.00;1.50;;;29.70;49.90;;;;;;4997745;28;20464;-52
2022/06/11 11:38:42;;;;;;;4.53;1.77;;;29.80;49.40;;;;;;4998765;28;20445;-52
2022/06/11 11:41:24;;;;;;;3.83;1.90;;;29.90;49.90;;;;;;4999073;28;20429;-53
2022/06/11 11:43:51;;;;;;;4.23;1.77;;;29.90;50.40;;;;;;4998380;28;20480;-52
2022/06/11 11:46:21;;;;;;;3.00;1.67;;;30.00;49.80;;;;;;4998262;28;20989;-52
2022/06/11 11:48:52;;;;;;;3.40;1.60;;;30.20;49.10;;;;;;4997979;28;20433;-52
2022/06/11 11:51:24;;;;;;;3.23;1.90;;;30.10;48.90;;;;;;4998344;28;20938;-53
2022/06/11 11:53:55;;;;;;;2.97;1.67;;;30.20;48.90;;;;;;4998940;28;20425;-52
2022/06/11 11:56:29;;;;;;;5.80;2.20;;;30.20;48.90;;;;;;4998493;28;20484;-53
2022/06/11 11:58:59;;;;;;;4.27;1.70;;;30.30;48.60;;;;;;4997639;28;20447;-53
2022/06/11 12:01:28;;;;;;;3.67;1.47;;;30.20;48.40;;;;;;4998016;28;20433;-53
2022/06/11 12:04:03;;;;;;;4.70;1.90;;;30.30;48.40;;;;;;4998023;28;20480;-52
2022/06/11 12:06:34;;;;;;;7.13;2.10;;;30.20;48.40;;;;;;4998644;28;20453;-55
2022/06/11 12:09:03;;;;;;;3.17;1.77;;;30.00;48.50;;;;;;4997617;28;20536;-52
2022/06/11 12:11:37;;;;;;;2.50;1.50;;;29.90;48.50;;;;;;4998200;28;20547;-53
2022/06/11 12:14:13;;;;;;;3.17;1.60;;;29.80;48.50;;;;;;4998147;28;20802;-52
2022/06/11 12:16:42;;;;;;;4.23;1.60;;;29.70;48.30;;;;;;4998272;28;20511;-52
2022/06/11 12:19:19;;;;;;;2.60;1.47;;;29.60;49.10;;;;;;4998334;28;20780;-51
2022/06/11 12:21:50;;;;;;;4.07;1.63;;;29.60;48.60;;;;;;4999419;28;20440;-52
2022/06/11 12:24:22;;;;;;;2.50;1.43;;;29.60;48.60;;;;;;4998248;28;20477;-52
2022/06/11 12:26:54;;;;;;;3.10;1.60;;;29.60;49.30;;;;;;4998032;28;20445;-52
2022/06/11 12:29:28;;;;;;;4.30;2.13;;;29.60;49.00;;;;;;4998552;28;20436;-53
2022/06/11 12:32:00;;;;;;;4.37;1.77;;;29.70;49.10;;;;;;4997410;28;20448;-52
2022/06/11 12:34:30;;;;;;;3.60;1.70;;;29.80;49.20;;;;;;4998186;28;20433;-52
2022/06/11 12:37:01;;;;;;;3.90;1.97;;;29.80;49.90;;;;;;4995871;28;20475;-52
2022/06/11 12:39:46;;;;;;;10.10;2.80;;;29.70;50.80;;;;;;4994684;28;20430;-51
2022/06/11 12:42:21;;;;;;;4.50;2.10;;;29.90;52.20;;;;;;4994150;28;20437;-50
2022/06/11 12:44:56;;;;;;;4.03;1.90;;;29.70;52.10;;;;;;4994641;28;20490;-51
2022/06/11 12:47:45;;;;;;;5.40;2.27;;;29.70;52.70;;;;;;4994501;28;20527;-51
2022/06/11 12:50:38;;;;;;;6.67;2.13;;;29.60;53.20;;;;;;4993900;28;21029;-51
2022/06/11 12:53:11;;;;;;;10.17;2.30;;;29.50;53.40;;;;;;4994305;28;20465;-51
2022/06/11 12:55:50;;;;;;;3.90;2.47;;;29.30;53.60;;;;;;4994709;28;20465;-51
2022/06/11 12:58:34;;;;;;;4.00;2.13;;;29.20;53.80;;;;;;4992322;28;20449;-51
2022/06/11 13:01:04;;;;;;;5.60;2.40;;;29.10;53.90;;;;;;4994226;28;20429;-51
2022/06/11 13:03:56;;;;;;;5.03;2.40;;;29.20;54.10;;;;;;4992919;28;20484;-51
2022/06/11 13:06:39;;;;;;;5.37;2.23;;;29.20;54.30;;;;;;4993986;28;20612;-51
2022/06/11 13:09:19;;;;;;;4.17;2.40;;;29.10;54.30;;;;;;4993894;28;20445;-51